createdAt,value
2023-04-04T00:00:51.903Z,2.50
2023-04-04T00:03:54.550Z,2.60
2023-04-04T00:06:58.771Z,2.15
2023-04-04T00:10:01.407Z,2.38
2023-04-04T00:13:05.491Z,2.28
2023-04-04T00:16:08.434Z,3.00
2023-04-04T00:19:14.134Z,3.30
2023-04-04T00:22:18.928Z,2.15
2023-04-04T00:25:21.524Z,2.67
2023-04-04T00:28:24.105Z,2.72
2023-04-04T00:31:27.173Z,2.78
2023-04-04T00:34:29.769Z,2.55
2023-04-04T00:37:33.871Z,2.28
2023-04-04T00:40:42.052Z,2.55
2023-04-04T00:43:44.761Z,3.03
2023-04-04T00:46:47.388Z,3.13
2023-04-04T00:49:49.958Z,2.53
2023-04-04T00:52:53.884Z,2.88
2023-04-04T00:55:56.483Z,2.90
2023-04-04T00:58:59.090Z,2.70
2023-04-04T01:02:01.682Z,2.83
2023-04-04T01:05:04.559Z,2.65
2023-04-04T01:08:08.605Z,2.63
2023-04-04T01:11:11.260Z,2.72
2023-04-04T01:14:13.807Z,3.13
2023-04-04T01:17:16.404Z,3.58
2023-04-04T01:20:21.565Z,3.03
2023-04-04T01:23:25.825Z,2.58
2023-04-04T01:26:29.835Z,3.00
2023-04-04T01:29:32.348Z,2.70
2023-04-04T01:32:37.295Z,2.63
2023-04-04T01:35:44.309Z,2.88
2023-04-04T01:38:50.685Z,2.47
2023-04-04T01:41:54.969Z,3.60
2023-04-04T01:44:57.612Z,2.75
2023-04-04T01:48:00.211Z,3.13
2023-04-04T01:51:03.251Z,2.80
2023-04-04T01:54:05.805Z,3.05
2023-04-04T01:57:09.725Z,2.70
2023-04-04T02:00:13.448Z,3.00
2023-04-04T02:03:16.016Z,2.88
2023-04-04T02:06:18.605Z,2.85
2023-04-04T02:09:21.242Z,2.83
2023-04-04T02:12:25.162Z,2.72
2023-04-04T02:15:27.679Z,3.75
2023-04-04T02:18:30.233Z,2.55
2023-04-04T02:21:32.771Z,2.65
2023-04-04T02:24:35.486Z,3.20
2023-04-04T02:27:39.357Z,2.90
2023-04-04T02:30:42.032Z,2.80
2023-04-04T02:33:44.688Z,2.75
2023-04-04T02:36:47.195Z,2.70
2023-04-04T02:39:49.779Z,2.83
2023-04-04T02:42:53.651Z,3.10
2023-04-04T02:45:56.324Z,3.13
2023-04-04T02:48:58.901Z,3.30
2023-04-04T02:52:01.641Z,3.03
2023-04-04T02:55:04.499Z,3.05
2023-04-04T02:58:08.367Z,2.75
2023-04-04T03:01:10.920Z,3.55
2023-04-04T03:04:13.711Z,3.17
2023-04-04T03:07:16.316Z,3.15
2023-04-04T03:10:18.847Z,3.13
2023-04-04T03:13:22.712Z,3.33
2023-04-04T03:16:25.303Z,3.42
2023-04-04T03:19:27.972Z,3.15
2023-04-04T03:22:30.631Z,4.05
2023-04-04T03:25:33.216Z,4.32
2023-04-04T03:28:37.090Z,3.05
2023-04-04T03:31:39.914Z,3.05
2023-04-04T03:34:42.642Z,3.55
2023-04-04T03:37:45.178Z,3.65
2023-04-04T03:40:47.735Z,3.33
2023-04-04T03:43:51.788Z,3.30
2023-04-04T03:46:54.426Z,2.97
2023-04-04T03:49:57.235Z,3.40
2023-04-04T03:52:59.753Z,3.55
2023-04-04T03:56:02.300Z,3.67
2023-04-04T03:59:06.386Z,3.13
2023-04-04T04:02:08.962Z,3.13
2023-04-04T04:05:11.877Z,3.00
2023-04-04T04:08:14.416Z,4.03
2023-04-04T04:11:17.019Z,3.65
2023-04-04T04:14:21.064Z,3.55
2023-04-04T04:17:23.643Z,3.80
2023-04-04T04:20:26.492Z,3.67
2023-04-04T04:23:29.073Z,4.05
2023-04-04T04:26:31.653Z,3.83
2023-04-04T04:29:35.579Z,4.20
2023-04-04T04:32:38.313Z,4.10
2023-04-04T04:35:40.999Z,4.03
2023-04-04T04:38:43.820Z,3.97
2023-04-04T04:41:46.555Z,4.00
2023-04-04T04:44:50.469Z,4.35
2023-04-04T04:47:53.053Z,3.95
2023-04-04T04:50:55.636Z,4.32
2023-04-04T04:53:58.220Z,4.32
2023-04-04T04:57:01.464Z,4.35
2023-04-04T05:00:06.542Z,4.53
2023-04-04T05:03:09.162Z,3.25
2023-04-04T05:06:12.313Z,3.55
2023-04-04T05:09:14.923Z,3.97
2023-04-04T05:12:17.944Z,5.15
2023-04-04T05:15:22.376Z,4.60
2023-04-04T05:18:25.385Z,4.35
2023-04-04T05:21:27.871Z,4.90
2023-04-04T05:24:30.469Z,4.63
2023-04-04T05:27:32.991Z,4.93
2023-04-04T05:30:36.894Z,4.70
2023-04-04T05:33:39.452Z,4.95
2023-04-04T05:36:41.983Z,5.10
2023-04-04T05:39:44.573Z,5.20
2023-04-04T05:42:55.208Z,6.38
2023-04-04T05:45:59.196Z,4.75
2023-04-04T05:49:01.815Z,5.00
2023-04-04T05:52:04.339Z,5.07
2023-04-04T05:55:07.638Z,4.13
2023-04-04T05:58:11.352Z,4.65
2023-04-04T06:01:16.429Z,3.90
2023-04-04T06:04:19.000Z,4.05
2023-04-04T06:07:21.686Z,4.35
2023-04-04T06:10:24.523Z,4.78
2023-04-04T06:13:27.015Z,4.72
2023-04-04T06:16:31.561Z,4.55
2023-04-04T06:19:34.236Z,4.40
2023-04-04T06:22:36.819Z,4.47
2023-04-04T06:25:39.344Z,4.28
2023-04-04T06:28:48.092Z,4.20
2023-04-04T06:31:52.029Z,4.25
2023-04-04T06:34:54.621Z,4.88
2023-04-04T06:37:57.151Z,4.22
2023-04-04T06:40:59.709Z,4.88
2023-04-04T06:44:02.259Z,4.53
2023-04-04T06:47:06.369Z,5.38
2023-04-04T06:50:10.180Z,3.92
2023-04-04T06:53:13.107Z,4.15
2023-04-04T06:56:15.664Z,4.05
2023-04-04T06:59:18.192Z,4.22
2023-04-04T07:02:22.084Z,4.15
2023-04-04T07:05:24.718Z,4.40
2023-04-04T07:08:27.548Z,4.28
2023-04-04T07:11:31.400Z,3.90
2023-04-04T07:14:33.937Z,3.85
2023-04-04T07:17:40.969Z,4.35
2023-04-04T07:20:44.006Z,3.50
2023-04-04T07:23:46.559Z,3.70
2023-04-04T07:26:49.111Z,3.17
2023-04-04T07:29:52.145Z,3.30
2023-04-04T07:32:59.470Z,4.20
2023-04-04T07:36:02.209Z,3.25
2023-04-04T07:39:04.859Z,2.97
2023-04-04T07:42:07.684Z,3.05
2023-04-04T07:45:10.913Z,3.22
2023-04-04T07:48:14.743Z,3.20
2023-04-04T07:51:17.325Z,3.45
2023-04-04T07:54:19.907Z,3.10
2023-04-04T07:57:22.486Z,3.15
2023-04-04T08:00:26.445Z,3.80
2023-04-04T08:03:31.315Z,3.30
2023-04-04T08:06:34.402Z,3.65
2023-04-04T08:09:37.023Z,3.60
2023-04-04T08:12:39.767Z,5.82
2023-04-04T08:15:42.393Z,3.42
2023-04-04T08:18:46.295Z,3.47
2023-04-04T08:21:48.854Z,3.08
2023-04-04T08:24:52.157Z,3.35
2023-04-04T08:27:54.730Z,2.40
2023-04-04T08:30:57.565Z,2.38
2023-04-04T08:34:02.029Z,2.85
2023-04-04T08:37:04.764Z,3.20
2023-04-04T08:40:08.659Z,2.83
2023-04-04T08:43:11.303Z,2.08
2023-04-04T08:46:13.927Z,2.25
2023-04-04T08:49:18.336Z,2.90
2023-04-04T08:52:21.686Z,2.35
2023-04-04T08:55:24.543Z,1.65
2023-04-04T08:58:27.298Z,1.90
2023-04-04T09:01:30.155Z,2.30
2023-04-04T09:04:34.132Z,1.45
2023-04-04T09:07:38.853Z,2.40
2023-04-04T09:10:43.879Z,1.38
2023-04-04T09:13:46.499Z,2.53
2023-04-04T09:16:49.100Z,1.35
2023-04-04T09:19:54.248Z,1.50
2023-04-04T09:22:56.794Z,1.05
2023-04-04T09:26:04.467Z,1.50
2023-04-04T09:29:09.088Z,1.60
2023-04-04T09:32:13.981Z,2.10
2023-04-04T09:35:17.964Z,1.40
2023-04-04T09:38:21.968Z,1.58
2023-04-04T09:41:25.163Z,1.58
2023-04-04T09:44:29.227Z,1.70
2023-04-04T09:47:33.417Z,2.20
2023-04-04T09:50:37.944Z,1.80
2023-04-04T09:53:41.964Z,1.75
2023-04-04T09:56:44.843Z,2.00
2023-04-04T09:59:47.567Z,2.03
2023-04-04T10:02:50.316Z,2.42
2023-04-04T10:05:58.759Z,2.63
2023-04-04T10:09:01.728Z,1.52
2023-04-04T10:12:10.622Z,2.38
2023-04-04T10:15:13.188Z,2.28
2023-04-04T10:18:16.112Z,2.03
2023-04-04T10:21:20.008Z,2.22
2023-04-04T10:24:22.599Z,2.80
2023-04-04T10:27:25.258Z,1.88
2023-04-04T10:30:27.889Z,1.38
2023-04-04T10:33:33.628Z,2.10
2023-04-04T10:36:41.676Z,2.78
2023-04-04T10:39:47.456Z,2.40
2023-04-04T10:42:49.983Z,3.20
2023-04-04T10:45:52.580Z,1.63
2023-04-04T10:48:55.295Z,2.53
2023-04-04T10:51:59.177Z,3.20
2023-04-04T10:55:04.082Z,2.95
2023-04-04T10:58:08.322Z,2.70
2023-04-04T11:01:11.120Z,1.95
2023-04-04T11:04:20.360Z,2.45
2023-04-04T11:07:25.207Z,2.45
2023-04-04T11:10:29.334Z,2.08
2023-04-04T11:13:35.531Z,2.38
2023-04-04T11:16:45.235Z,2.47
2023-04-04T11:19:59.423Z,2.30
2023-04-04T11:23:11.210Z,3.35
2023-04-04T11:26:13.805Z,2.90
2023-04-04T11:29:25.032Z,2.72
2023-04-04T11:32:34.718Z,2.83
2023-04-04T11:35:39.673Z,3.33
2023-04-04T11:38:44.405Z,2.72
2023-04-04T11:41:49.071Z,2.53
2023-04-04T11:45:03.368Z,2.85
2023-04-04T11:48:07.070Z,2.78
2023-04-04T11:51:11.338Z,2.90
2023-04-04T11:54:18.456Z,2.70
2023-04-04T11:57:21.806Z,2.35
2023-04-04T12:00:31.122Z,1.48
2023-04-04T12:03:34.870Z,2.33
2023-04-04T12:06:37.756Z,1.55
2023-04-04T12:09:43.170Z,3.33
2023-04-04T12:12:46.257Z,2.33
2023-04-04T12:15:49.229Z,1.98
2023-04-04T12:18:52.024Z,1.30
2023-04-04T12:21:54.834Z,1.15
2023-04-04T12:24:58.864Z,3.40
2023-04-04T12:28:02.059Z,2.35
2023-04-04T12:31:06.610Z,1.95
2023-04-04T12:34:16.128Z,2.58
2023-04-04T12:37:19.474Z,3.05
2023-04-04T12:40:23.434Z,2.80
2023-04-04T12:43:28.589Z,2.20
2023-04-04T12:46:36.694Z,3.10
2023-04-04T12:49:40.858Z,2.13
2023-04-04T12:52:43.972Z,2.65
2023-04-04T12:55:49.405Z,2.22
2023-04-04T12:58:52.064Z,2.00
2023-04-04T13:01:54.585Z,2.47
2023-04-04T13:04:57.172Z,2.25
2023-04-04T13:08:06.687Z,3.00
2023-04-04T13:11:10.659Z,2.05
2023-04-04T13:14:14.552Z,2.30
2023-04-04T13:17:17.827Z,3.15
2023-04-04T13:20:20.844Z,2.42
2023-04-04T13:23:23.933Z,2.97
2023-04-04T13:26:28.964Z,2.45
2023-04-04T13:29:31.585Z,2.17
2023-04-04T13:32:34.258Z,2.20
2023-04-04T13:35:36.876Z,2.40
2023-04-04T13:38:39.474Z,3.03
2023-04-04T13:41:43.392Z,2.40
2023-04-04T13:44:45.924Z,2.40
2023-04-04T13:47:48.465Z,2.30
2023-04-04T13:50:52.896Z,3.00
2023-04-04T13:53:55.599Z,2.25
2023-04-04T13:56:59.470Z,2.40
2023-04-04T14:00:01.977Z,2.33
2023-04-04T14:03:04.665Z,2.75
2023-04-04T14:06:10.878Z,2.67
2023-04-04T14:09:13.784Z,3.10
2023-04-04T14:12:17.634Z,2.00
2023-04-04T14:15:20.203Z,2.50
2023-04-04T14:18:22.717Z,2.25
2023-04-04T14:21:25.842Z,2.20
2023-04-04T14:24:28.425Z,2.47
2023-04-04T14:27:32.398Z,2.47
2023-04-04T14:30:34.921Z,2.47
2023-04-04T14:33:37.465Z,2.95
2023-04-04T14:36:40.032Z,3.03
2023-04-04T14:39:42.621Z,3.38
2023-04-04T14:42:46.529Z,2.60
2023-04-04T14:45:49.089Z,3.15
2023-04-04T14:48:51.672Z,3.50
2023-04-04T14:51:54.396Z,3.40
2023-04-04T14:54:57.482Z,3.15
2023-04-04T14:58:02.839Z,2.50
2023-04-04T15:01:06.227Z,2.50
2023-04-04T15:04:09.092Z,2.55
2023-04-04T15:07:11.673Z,2.80
2023-04-04T15:10:14.221Z,2.83
2023-04-04T15:13:18.115Z,3.45
2023-04-04T15:16:21.333Z,2.90
2023-04-04T15:19:23.942Z,3.10
2023-04-04T15:22:26.527Z,3.10
2023-04-04T15:25:29.810Z,2.83
2023-04-04T15:28:33.708Z,2.70
2023-04-04T15:31:36.320Z,2.38
2023-04-04T15:34:38.854Z,3.28
2023-04-04T15:37:41.407Z,3.13
2023-04-04T15:40:43.929Z,6.00
2023-04-04T15:43:47.824Z,4.70
2023-04-04T15:46:50.414Z,4.72
2023-04-04T15:49:53.016Z,3.75
2023-04-04T15:52:55.588Z,4.00
2023-04-04T15:55:58.209Z,3.78
2023-04-04T15:59:02.194Z,4.10
2023-04-04T16:02:05.835Z,3.45
2023-04-04T16:05:09.028Z,4.10
2023-04-04T16:08:12.640Z,3.47
2023-04-04T16:11:15.132Z,3.70
2023-04-04T16:14:19.036Z,4.00
2023-04-04T16:17:22.086Z,3.63
2023-04-04T16:20:25.401Z,3.70
2023-04-04T16:23:27.959Z,3.65
2023-04-04T16:26:30.590Z,3.17
2023-04-04T16:29:34.505Z,2.97
2023-04-04T16:32:37.365Z,3.33
2023-04-04T16:35:40.531Z,3.30
2023-04-04T16:38:43.096Z,4.13
2023-04-04T16:41:45.648Z,3.90
2023-04-04T16:44:49.587Z,3.33
2023-04-04T16:47:52.121Z,4.00
2023-04-04T16:50:54.711Z,4.35
2023-04-04T16:53:57.335Z,3.78
2023-04-04T16:56:59.912Z,4.25
2023-04-04T17:00:06.116Z,3.40
2023-04-04T17:03:08.651Z,3.30
2023-04-04T17:06:11.371Z,4.47
2023-04-04T17:09:13.866Z,3.63
2023-04-04T17:12:16.480Z,3.58
2023-04-04T17:15:20.393Z,3.45
2023-04-04T17:18:22.913Z,3.63
2023-04-04T17:21:26.285Z,3.97
2023-04-04T17:24:28.826Z,4.20
2023-04-04T17:27:31.748Z,3.95
2023-04-04T17:30:35.683Z,4.55
2023-04-04T17:33:38.219Z,4.50
2023-04-04T17:36:41.038Z,3.88
2023-04-04T17:39:45.440Z,5.30
2023-04-04T17:42:48.217Z,4.47
2023-04-04T17:45:52.396Z,4.43
2023-04-04T17:48:55.432Z,5.25
2023-04-04T17:51:58.176Z,5.50
2023-04-04T17:55:00.699Z,6.68
2023-04-04T17:58:03.270Z,5.60
2023-04-04T18:01:07.202Z,5.18
2023-04-04T18:04:09.726Z,4.53
2023-04-04T18:07:12.244Z,4.65
2023-04-04T18:10:14.735Z,5.07
2023-04-04T18:13:17.301Z,5.40
2023-04-04T18:16:21.244Z,5.90
2023-04-04T18:19:23.881Z,6.22
2023-04-04T18:22:27.059Z,5.65
2023-04-04T18:25:29.736Z,5.60
2023-04-04T18:28:32.288Z,4.88
2023-04-04T18:31:36.378Z,5.78
2023-04-04T18:34:38.991Z,5.65
2023-04-04T18:37:41.711Z,5.25
2023-04-04T18:40:45.607Z,5.95
2023-04-04T18:43:48.185Z,6.30
2023-04-04T18:46:52.071Z,5.25
2023-04-04T18:49:54.721Z,6.00
2023-04-04T18:52:57.338Z,8.15
2023-04-04T18:55:59.967Z,5.40
2023-04-04T18:59:02.604Z,6.45
2023-04-04T19:02:06.569Z,6.25
2023-04-04T19:05:10.312Z,6.05
2023-04-04T19:08:12.832Z,6.20
2023-04-04T19:11:15.792Z,6.18
2023-04-04T19:14:19.366Z,5.82
2023-04-04T19:17:23.200Z,5.60
2023-04-04T19:20:25.773Z,5.88
2023-04-04T19:23:28.649Z,6.57
2023-04-04T19:26:31.414Z,7.07
2023-04-04T19:29:34.771Z,6.82
2023-04-04T19:32:38.664Z,6.50
2023-04-04T19:35:48.287Z,6.78
2023-04-04T19:38:52.733Z,6.85
2023-04-04T19:41:56.675Z,6.35
2023-04-04T19:44:59.216Z,6.47
2023-04-04T19:48:03.169Z,6.93
2023-04-04T19:51:07.623Z,7.50
2023-04-04T19:54:14.821Z,8.90
2023-04-04T19:57:19.430Z,7.18
2023-04-04T20:00:23.947Z,7.78
2023-04-04T20:03:30.284Z,8.48
2023-04-04T20:06:32.798Z,8.23
2023-04-04T20:09:39.732Z,8.43
2023-04-04T20:12:42.248Z,8.88
2023-04-04T20:16:02.113Z,9.10
2023-04-04T20:19:06.623Z,7.22
2023-04-04T20:22:09.258Z,8.00
2023-04-04T20:25:12.273Z,8.38
2023-04-04T20:28:21.279Z,7.65
2023-04-04T20:31:23.847Z,8.15
2023-04-04T20:34:41.346Z,7.53
2023-04-04T20:37:44.029Z,11.02
2023-04-04T20:40:46.627Z,7.88
2023-04-04T20:43:51.460Z,9.38
2023-04-04T20:46:53.977Z,7.95
2023-04-04T20:49:57.902Z,8.32
2023-04-04T20:53:01.474Z,8.52
2023-04-04T20:56:06.228Z,9.10
2023-04-04T20:59:09.141Z,9.15
2023-04-04T21:02:19.894Z,14.23
2023-04-04T21:05:28.383Z,12.90
2023-04-04T21:08:43.020Z,10.55
2023-04-04T21:11:45.718Z,10.23
2023-04-04T21:14:48.240Z,9.23
2023-04-04T21:17:50.841Z,10.75
2023-04-04T21:21:16.594Z,11.95
2023-04-04T21:24:19.152Z,15.23
2023-04-04T21:27:33.615Z,14.15
2023-04-04T21:30:43.686Z,20.13
2023-04-04T21:33:46.545Z,33.15
2023-04-04T21:36:51.090Z,27.38
2023-04-04T21:39:54.471Z,13.15
2023-04-04T21:42:57.030Z,11.88
2023-04-04T21:45:59.561Z,12.07
2023-04-04T21:49:02.315Z,11.07
2023-04-04T21:52:06.235Z,10.90
2023-04-04T21:55:09.504Z,10.68
2023-04-04T21:58:12.128Z,10.82
2023-04-04T22:01:14.763Z,10.30
2023-04-04T22:04:17.353Z,11.40
2023-04-04T22:07:21.451Z,10.90
2023-04-04T22:10:26.791Z,10.50
2023-04-04T22:13:32.956Z,10.70
2023-04-04T22:16:39.077Z,11.00
2023-04-04T22:19:43.871Z,10.93
2023-04-04T22:22:47.757Z,10.80
2023-04-04T22:25:51.269Z,11.15
2023-04-04T22:28:53.768Z,12.05
2023-04-04T22:31:56.767Z,10.38
2023-04-04T22:34:59.359Z,10.63
2023-04-04T22:38:03.568Z,10.80
2023-04-04T22:41:06.256Z,10.18
2023-04-04T22:44:08.756Z,9.60
2023-04-04T22:47:11.896Z,10.20
2023-04-04T22:50:15.978Z,10.63
2023-04-04T22:53:24.715Z,10.00
2023-04-04T22:56:27.384Z,9.93
2023-04-04T22:59:29.932Z,10.10
2023-04-04T23:02:32.533Z,10.40
2023-04-04T23:05:35.250Z,9.38
2023-04-04T23:08:39.170Z,10.18
2023-04-04T23:11:41.782Z,9.63
2023-04-04T23:14:44.971Z,8.80
2023-04-04T23:17:47.734Z,9.05
2023-04-04T23:20:50.309Z,9.63
2023-04-04T23:23:54.194Z,9.50
2023-04-04T23:26:57.565Z,9.85
2023-04-04T23:30:00.245Z,10.63
2023-04-04T23:33:02.834Z,10.15
2023-04-04T23:36:05.863Z,10.68
2023-04-04T23:39:09.937Z,9.88
2023-04-04T23:42:12.514Z,9.90
2023-04-04T23:45:16.185Z,9.95
2023-04-04T23:48:18.767Z,10.35
2023-04-04T23:51:22.017Z,9.95
2023-04-04T23:54:26.652Z,10.32
2023-04-04T23:57:29.235Z,10.05
